Time,TemperatureF,DewpointF,PressureIn,WindDirection,WindDirectionDegrees,WindSpeedMPH,WindSpeedGustMPH,Humidity,HourlyPrecipIn,Conditions,Clouds,dailyrainin,SolarRadiationWatts/m^2,SoftwareType,DateUTC
2013-05-04 00:01:00,40.0,13.0,-100.00,East,93,4.0,8.0,32,0.00,,,0.00,0.000000,,2013-05-04 06:01:00,
2013-05-04 00:11:00,40.0,13.0,-100.00,East,93,4.0,8.0,32,0.00,,,0.00,0.000000,,2013-05-04 06:11:00,
2013-05-04 00:21:00,40.0,13.0,-100.00,East,93,4.0,8.0,32,0.00,,,0.00,0.000000,,2013-05-04 06:21:00,
2013-05-04 00:42:00,38.0,14.0,-100.00,ESE,104,4.0,7.0,37,0.00,,,0.00,0.000000,,2013-05-04 06:42:00,
2013-05-04 00:52:00,38.0,14.0,-100.00,ESE,104,4.0,7.0,37,0.00,,,0.00,0.000000,,2013-05-04 06:52:00,
2013-05-04 01:01:00,38.0,14.0,-100.00,ESE,104,4.0,7.0,37,0.00,,,0.00,0.000000,,2013-05-04 07:01:00,
2013-05-04 01:11:00,38.0,14.0,-100.00,ESE,104,4.0,7.0,37,0.00,,,0.00,0.000000,,2013-05-04 07:11:00,
2013-05-04 01:21:00,38.0,14.0,-100.00,ESE,104,4.0,7.0,37,0.00,,,0.00,0.000000,,2013-05-04 07:21:00,
2013-05-04 01:42:00,34.0,14.0,-100.00,ESE,104,3.0,6.0,44,0.00,,,0.00,0.000000,,2013-05-04 07:42:00,
2013-05-04 01:52:00,34.0,14.0,-100.00,ESE,104,3.0,6.0,44,0.00,,,0.00,0.000000,,2013-05-04 07:52:00,
2013-05-04 02:01:00,34.0,14.0,-100.00,ESE,104,3.0,6.0,44,0.00,,,0.00,0.000000,,2013-05-04 08:01:00,
2013-05-04 02:11:00,34.0,14.0,-100.00,ESE,104,3.0,6.0,44,0.00,,,0.00,0.000000,,2013-05-04 08:11:00,
2013-05-04 02:21:00,34.0,14.0,-100.00,ESE,104,3.0,6.0,44,0.00,,,0.00,0.000000,,2013-05-04 08:21:00,
2013-05-04 02:42:00,34.0,14.0,-100.00,ESE,120,3.0,8.0,44,0.00,,,0.00,0.000000,,2013-05-04 08:42:00,
2013-05-04 02:52:00,34.0,14.0,-100.00,ESE,120,3.0,8.0,44,0.00,,,0.00,0.000000,,2013-05-04 08:52:00,
2013-05-04 03:02:00,34.0,14.0,-100.00,ESE,120,3.0,8.0,44,0.00,,,0.00,0.000000,,2013-05-04 09:02:00,
2013-05-04 03:11:00,34.0,14.0,-100.00,ESE,120,3.0,8.0,44,0.00,,,0.00,0.000000,,2013-05-04 09:11:00,
2013-05-04 03:21:00,34.0,14.0,-100.00,ESE,120,3.0,8.0,44,0.00,,,0.00,0.000000,,2013-05-04 09:21:00,
2013-05-04 03:22:00,32.0,14.0,-100.00,SE,128,4.0,5.0,47,0.00,,,0.00,0.000000,,2013-05-04 09:22:00,
2013-05-04 03:42:00,32.0,14.0,-100.00,SE,128,4.0,5.0,47,0.00,,,0.00,0.000000,,2013-05-04 09:42:00,
2013-05-04 03:53:00,32.0,14.0,-100.00,SE,128,4.0,5.0,47,0.00,,,0.00,0.000000,,2013-05-04 09:53:00,
2013-05-04 04:03:00,32.0,14.0,-100.00,SE,128,4.0,5.0,47,0.00,,,0.00,0.000000,,2013-05-04 10:03:00,
2013-05-04 04:12:00,32.0,14.0,-100.00,SE,128,4.0,5.0,47,0.00,,,0.00,0.000000,,2013-05-04 10:12:00,
2013-05-04 04:42:00,32.0,14.0,-100.00,ESE,109,4.0,8.0,46,0.00,,,0.00,0.000000,,2013-05-04 10:42:00,
2013-05-04 04:53:00,32.0,14.0,-100.00,ESE,109,4.0,8.0,46,0.00,,,0.00,0.000000,,2013-05-04 10:53:00,
2013-05-04 05:02:00,32.0,14.0,-100.00,ESE,109,4.0,8.0,46,0.00,,,0.00,0.000000,,2013-05-04 11:02:00,
2013-05-04 05:11:00,32.0,14.0,-100.00,ESE,109,4.0,8.0,46,0.00,,,0.00,0.000000,,2013-05-04 11:11:00,
2013-05-04 05:21:00,32.0,14.0,-100.00,ESE,109,4.0,8.0,46,0.00,,,0.00,0.000000,,2013-05-04 11:21:00,
2013-05-04 05:22:00,33.0,14.0,-100.00,East,101,2.0,6.0,45,0.00,,,0.00,0.000000,,2013-05-04 11:22:00,
2013-05-04 05:46:00,33.0,14.0,-100.00,East,101,2.0,6.0,45,0.00,,,0.00,0.000000,,2013-05-04 11:46:00,
2013-05-04 06:03:00,33.0,14.0,-100.00,East,101,2.0,6.0,45,0.00,,,0.00,0.000000,,2013-05-04 12:03:00,
2013-05-04 06:42:00,32.0,13.0,-100.00,ESE,104,2.0,6.0,44,0.00,,,0.00,3.000000,,2013-05-04 12:42:00,
2013-05-04 06:52:00,32.0,13.0,-100.00,ESE,104,2.0,6.0,44,0.00,,,0.00,3.000000,,2013-05-04 12:52:00,
2013-05-04 07:01:00,32.0,13.0,-100.00,ESE,104,2.0,6.0,44,0.00,,,0.00,3.000000,,2013-05-04 13:01:00,
2013-05-04 07:11:00,32.0,13.0,-100.00,ESE,104,2.0,6.0,44,0.00,,,0.00,3.000000,,2013-05-04 13:11:00,
2013-05-04 07:21:00,32.0,13.0,-100.00,ESE,104,2.0,6.0,44,0.00,,,0.00,3.000000,,2013-05-04 13:21:00,
2013-05-04 07:42:00,35.0,14.0,-100.00,East,96,2.0,5.0,42,0.00,,,0.00,28.000000,,2013-05-04 13:42:00,
2013-05-04 07:52:00,35.0,14.0,-100.00,East,96,2.0,5.0,42,0.00,,,0.00,28.000000,,2013-05-04 13:52:00,
2013-05-04 08:02:00,35.0,14.0,-100.00,East,96,2.0,5.0,42,0.00,,,0.00,28.000000,,2013-05-04 14:02:00,
2013-05-04 08:11:00,35.0,14.0,-100.00,East,96,2.0,5.0,42,0.00,,,0.00,28.000000,,2013-05-04 14:11:00,
2013-05-04 08:21:00,35.0,14.0,-100.00,East,96,2.0,5.0,42,0.00,,,0.00,28.000000,,2013-05-04 14:21:00,
2013-05-04 08:22:00,38.0,16.0,-100.00,NNE,31,2.0,4.0,40,0.00,,,0.00,167.000000,,2013-05-04 14:22:00,
2013-05-04 08:42:00,38.0,16.0,-100.00,NNE,31,2.0,4.0,40,0.00,,,0.00,167.000000,,2013-05-04 14:42:00,
2013-05-04 08:52:00,38.0,16.0,-100.00,NNE,31,2.0,4.0,40,0.00,,,0.00,167.000000,,2013-05-04 14:52:00,
2013-05-04 09:02:00,38.0,16.0,-100.00,NNE,31,2.0,4.0,40,0.00,,,0.00,167.000000,,2013-05-04 15:02:00,
2013-05-04 09:12:00,38.0,16.0,-100.00,NNE,31,2.0,4.0,40,0.00,,,0.00,167.000000,,2013-05-04 15:12:00,
2013-05-04 09:22:00,48.0,15.0,-100.00,ENE,73,3.0,6.0,26,0.00,,,0.00,617.000000,,2013-05-04 15:22:00,
2013-05-04 09:43:00,48.0,15.0,-100.00,ENE,73,3.0,6.0,26,0.00,,,0.00,617.000000,,2013-05-04 15:43:00,
2013-05-04 09:53:00,48.0,15.0,-100.00,ENE,73,3.0,6.0,26,0.00,,,0.00,617.000000,,2013-05-04 15:53:00,
2013-05-04 10:03:00,48.0,15.0,-100.00,ENE,73,3.0,6.0,26,0.00,,,0.00,617.000000,,2013-05-04 16:03:00,
2013-05-04 10:12:00,48.0,15.0,-100.00,ENE,73,3.0,6.0,26,0.00,,,0.00,617.000000,,2013-05-04 16:12:00,
2013-05-04 10:22:00,55.0,14.0,-100.00,NNW,328,3.0,6.0,19,0.00,,,0.00,840.000000,,2013-05-04 16:22:00,
2013-05-04 10:42:00,55.0,14.0,-100.00,NNW,328,3.0,6.0,19,0.00,,,0.00,840.000000,,2013-05-04 16:42:00,
2013-05-04 10:52:00,55.0,14.0,-100.00,NNW,328,3.0,6.0,19,0.00,,,0.00,840.000000,,2013-05-04 16:52:00,
2013-05-04 11:02:00,55.0,14.0,-100.00,NNW,328,3.0,6.0,19,0.00,,,0.00,840.000000,,2013-05-04 17:02:00,
2013-05-04 11:12:00,55.0,14.0,-100.00,NNW,328,3.0,6.0,19,0.00,,,0.00,840.000000,,2013-05-04 17:12:00,
2013-05-04 11:42:00,57.0,10.0,-100.00,NE,50,3.0,7.0,15,0.00,,,0.00,1022.000000,,2013-05-04 17:42:00,
2013-05-04 11:52:00,57.0,10.0,-100.00,NE,50,3.0,7.0,15,0.00,,,0.00,1022.000000,,2013-05-04 17:52:00,
2013-05-04 12:01:00,57.0,10.0,-100.00,NE,50,3.0,7.0,15,0.00,,,0.00,1022.000000,,2013-05-04 18:01:00,
2013-05-04 12:12:00,57.0,10.0,-100.00,NE,50,3.0,7.0,15,0.00,,,0.00,1022.000000,,2013-05-04 18:12:00,
2013-05-04 12:21:00,57.0,10.0,-100.00,NE,50,3.0,7.0,15,0.00,,,0.00,1022.000000,,2013-05-04 18:21:00,
2013-05-04 12:42:00,58.0,4.0,-100.00,NNE,14,4.0,7.0,11,0.00,,,0.00,1144.000000,,2013-05-04 18:42:00,
2013-05-04 12:52:00,58.0,4.0,-100.00,NNE,14,4.0,7.0,11,0.00,,,0.00,1144.000000,,2013-05-04 18:52:00,
2013-05-04 13:01:00,58.0,4.0,-100.00,NNE,14,4.0,7.0,11,0.00,,,0.00,1144.000000,,2013-05-04 19:01:00,
2013-05-04 13:11:00,58.0,4.0,-100.00,NNE,14,4.0,7.0,11,0.00,,,0.00,1144.000000,,2013-05-04 19:11:00,
2013-05-04 13:21:00,58.0,4.0,-100.00,NNE,14,4.0,7.0,11,0.00,,,0.00,1144.000000,,2013-05-04 19:21:00,
2013-05-04 13:22:00,56.0,2.0,-100.00,SW,226,5.0,10.0,11,0.00,,,0.00,1149.000000,,2013-05-04 19:22:00,
2013-05-04 13:42:00,56.0,2.0,-100.00,SW,226,5.0,10.0,11,0.00,,,0.00,1149.000000,,2013-05-04 19:42:00,
2013-05-04 13:52:00,56.0,2.0,-100.00,SW,226,5.0,10.0,11,0.00,,,0.00,1149.000000,,2013-05-04 19:52:00,
2013-05-04 14:02:00,56.0,2.0,-100.00,SW,226,5.0,10.0,11,0.00,,,0.00,1149.000000,,2013-05-04 20:02:00,
2013-05-04 14:11:00,56.0,2.0,-100.00,SW,226,5.0,10.0,11,0.00,,,0.00,1149.000000,,2013-05-04 20:11:00,
2013-05-04 14:22:00,54.0,11.0,-100.00,East,79,3.0,8.0,18,0.00,,,0.00,443.000000,,2013-05-04 20:22:00,
2013-05-04 14:52:00,54.0,11.0,-100.00,East,79,3.0,8.0,18,0.00,,,0.00,443.000000,,2013-05-04 20:52:00,
2013-05-04 15:02:00,54.0,11.0,-100.00,East,79,3.0,8.0,18,0.00,,,0.00,443.000000,,2013-05-04 21:02:00,
2013-05-04 15:12:00,54.0,11.0,-100.00,East,79,3.0,8.0,18,0.00,,,0.00,443.000000,,2013-05-04 21:12:00,
2013-05-04 15:22:00,51.0,10.0,-100.00,ESE,122,7.0,15.0,19,0.00,,,0.00,372.000000,,2013-05-04 21:22:00,
2013-05-04 15:43:00,51.0,10.0,-100.00,ESE,122,7.0,15.0,19,0.00,,,0.00,372.000000,,2013-05-04 21:43:00,
2013-05-04 15:53:00,51.0,10.0,-100.00,ESE,122,7.0,15.0,19,0.00,,,0.00,372.000000,,2013-05-04 21:53:00,
2013-05-04 16:03:00,51.0,10.0,-100.00,ESE,122,7.0,15.0,19,0.00,,,0.00,372.000000,,2013-05-04 22:03:00,
2013-05-04 16:12:00,51.0,10.0,-100.00,ESE,122,7.0,15.0,19,0.00,,,0.00,372.000000,,2013-05-04 22:12:00,
2013-05-04 16:42:00,55.0,11.0,-100.00,SE,132,5.0,14.0,17,0.00,,,0.00,497.000000,,2013-05-04 22:42:00,
2013-05-04 16:52:00,55.0,11.0,-100.00,SE,132,5.0,14.0,17,0.00,,,0.00,497.000000,,2013-05-04 22:52:00,
2013-05-04 17:02:00,55.0,11.0,-100.00,SE,132,5.0,14.0,17,0.00,,,0.00,497.000000,,2013-05-04 23:02:00,
2013-05-04 17:12:00,55.0,11.0,-100.00,SE,132,5.0,14.0,17,0.00,,,0.00,497.000000,,2013-05-04 23:12:00,
2013-05-04 17:21:00,55.0,11.0,-100.00,SE,132,5.0,14.0,17,0.00,,,0.00,497.000000,,2013-05-04 23:21:00,
2013-05-04 17:42:00,53.0,12.0,-100.00,SSW,194,4.0,7.0,19,0.00,,,0.00,326.000000,,2013-05-04 23:42:00,
2013-05-04 17:52:00,53.0,12.0,-100.00,SSW,194,4.0,7.0,19,0.00,,,0.00,326.000000,,2013-05-04 23:52:00,
2013-05-04 18:02:00,53.0,12.0,-100.00,SSW,194,4.0,7.0,19,0.00,,,0.00,326.000000,,2013-05-05 00:02:00,
2013-05-04 18:11:00,53.0,12.0,-100.00,SSW,194,4.0,7.0,19,0.00,,,0.00,326.000000,,2013-05-05 00:11:00,
2013-05-04 18:21:00,53.0,12.0,-100.00,SSW,194,4.0,7.0,19,0.00,,,0.00,326.000000,,2013-05-05 00:21:00,
2013-05-04 18:42:00,50.0,16.0,-100.00,SSE,152,5.0,15.0,26,0.00,,,0.00,183.000000,,2013-05-05 00:42:00,
2013-05-04 18:52:00,50.0,16.0,-100.00,SSE,152,5.0,15.0,26,0.00,,,0.00,183.000000,,2013-05-05 00:52:00,
2013-05-04 19:01:00,50.0,16.0,-100.00,SSE,152,5.0,15.0,26,0.00,,,0.00,183.000000,,2013-05-05 01:01:00,
2013-05-04 19:11:00,50.0,16.0,-100.00,SSE,152,5.0,15.0,26,0.00,,,0.00,183.000000,,2013-05-05 01:11:00,
2013-05-04 19:21:00,50.0,16.0,-100.00,SSE,152,5.0,15.0,26,0.00,,,0.00,183.000000,,2013-05-05 01:21:00,
2013-05-04 19:42:00,46.0,19.0,-100.00,East,83,3.0,13.0,34,0.00,,,0.00,84.000000,,2013-05-05 01:42:00,
2013-05-04 19:52:00,46.0,19.0,-100.00,East,83,3.0,13.0,34,0.00,,,0.00,84.000000,,2013-05-05 01:52:00,
2013-05-04 20:02:00,46.0,19.0,-100.00,East,83,3.0,13.0,34,0.00,,,0.00,84.000000,,2013-05-05 02:02:00,
2013-05-04 20:11:00,46.0,19.0,-100.00,East,83,3.0,13.0,34,0.00,,,0.00,84.000000,,2013-05-05 02:11:00,
2013-05-04 20:21:00,46.0,19.0,-100.00,East,83,3.0,13.0,34,0.00,,,0.00,84.000000,,2013-05-05 02:21:00,
2013-05-04 20:42:00,42.0,26.0,-100.00,ESE,107,7.0,10.0,53,0.00,,,0.00,6.000000,,2013-05-05 02:42:00,
2013-05-04 20:52:00,42.0,26.0,-100.00,ESE,107,7.0,10.0,53,0.00,,,0.00,6.000000,,2013-05-05 02:52:00,
2013-05-04 21:01:00,42.0,26.0,-100.00,ESE,107,7.0,10.0,53,0.00,,,0.00,6.000000,,2013-05-05 03:01:00,
2013-05-04 21:11:00,42.0,26.0,-100.00,ESE,107,7.0,10.0,53,0.00,,,0.00,6.000000,,2013-05-05 03:11:00,
2013-05-04 21:21:00,42.0,26.0,-100.00,ESE,107,7.0,10.0,53,0.00,,,0.00,6.000000,,2013-05-05 03:21:00,
2013-05-04 21:22:00,39.0,27.0,-100.00,ESE,107,8.0,12.0,62,0.00,,,0.00,0.000000,,2013-05-05 03:22:00,
2013-05-04 21:42:00,39.0,27.0,-100.00,ESE,107,8.0,12.0,62,0.00,,,0.00,0.000000,,2013-05-05 03:42:00,
2013-05-04 21:53:00,39.0,27.0,-100.00,ESE,107,8.0,12.0,62,0.00,,,0.00,0.000000,,2013-05-05 03:53:00,
2013-05-04 22:02:00,39.0,27.0,-100.00,ESE,107,8.0,12.0,62,0.00,,,0.00,0.000000,,2013-05-05 04:02:00,
2013-05-04 22:12:00,39.0,27.0,-100.00,ESE,107,8.0,12.0,62,0.00,,,0.00,0.000000,,2013-05-05 04:12:00,
2013-05-04 22:43:00,38.0,26.0,-100.00,ESE,114,6.0,12.0,61,0.00,,,0.00,0.000000,,2013-05-05 04:43:00,
2013-05-04 22:53:00,38.0,26.0,-100.00,ESE,114,6.0,12.0,61,0.00,,,0.00,0.000000,,2013-05-05 04:53:00,
2013-05-04 23:02:00,38.0,26.0,-100.00,ESE,114,6.0,12.0,61,0.00,,,0.00,0.000000,,2013-05-05 05:02:00,
2013-05-04 23:12:00,38.0,26.0,-100.00,ESE,114,6.0,12.0,61,0.00,,,0.00,0.000000,,2013-05-05 05:12:00,
2013-05-04 23:21:00,38.0,26.0,-100.00,ESE,114,6.0,12.0,61,0.00,,,0.00,0.000000,,2013-05-05 05:21:00,
2013-05-04 23:42:00,38.0,24.0,-100.00,ESE,108,6.0,9.0,57,0.00,,,0.00,0.000000,,2013-05-05 05:42:00,
2013-05-04 23:52:00,38.0,24.0,-100.00,ESE,108,6.0,9.0,57,0.00,,,0.00,0.000000,,2013-05-05 05:52:00,